sensor_id;sensor_type;location;lat;lon;timestamp;P1;durP1;ratioP1;P2;durP2;ratioP2
71253;SDS011;59019;47.638;18.966;2023-11-18T00:01:48;10.25;;;5.70;;
71253;SDS011;59019;47.638;18.966;2023-11-18T00:04:34;9.07;;;5.43;;
71253;SDS011;59019;47.638;18.966;2023-11-18T00:07:19;9.48;;;5.07;;
71253;SDS011;59019;47.638;18.966;2023-11-18T00:10:05;7.40;;;4.68;;
71253;SDS011;59019;47.638;18.966;2023-11-18T00:12:52;10.20;;;5.37;;
71253;SDS011;59019;47.638;18.966;2023-11-18T00:15:37;7.43;;;4.70;;
71253;SDS011;59019;47.638;18.966;2023-11-18T00:18:23;8.10;;;5.00;;
71253;SDS011;59019;47.638;18.966;2023-11-18T00:21:09;6.88;;;4.68;;
71253;SDS011;59019;47.638;18.966;2023-11-18T00:23:55;7.40;;;4.80;;
71253;SDS011;59019;47.638;18.966;2023-11-18T00:26:41;8.13;;;4.77;;
71253;SDS011;59019;47.638;18.966;2023-11-18T00:29:27;7.13;;;4.40;;
71253;SDS011;59019;47.638;18.966;2023-11-18T00:32:13;7.82;;;4.72;;
71253;SDS011;59019;47.638;18.966;2023-11-18T00:34:59;8.05;;;4.40;;
71253;SDS011;59019;47.638;18.966;2023-11-18T00:37:45;7.57;;;4.70;;
71253;SDS011;59019;47.638;18.966;2023-11-18T00:40:30;7.13;;;4.63;;
71253;SDS011;59019;47.638;18.966;2023-11-18T00:43:16;7.28;;;4.68;;
71253;SDS011;59019;47.638;18.966;2023-11-18T00:46:02;9.25;;;4.68;;
71253;SDS011;59019;47.638;18.966;2023-11-18T00:48:50;8.15;;;5.03;;
71253;SDS011;59019;47.638;18.966;2023-11-18T00:51:36;7.65;;;4.90;;
71253;SDS011;59019;47.638;18.966;2023-11-18T00:54:22;9.13;;;5.32;;
71253;SDS011;59019;47.638;18.966;2023-11-18T00:57:09;7.43;;;4.63;;
71253;SDS011;59019;47.638;18.966;2023-11-18T00:59:55;10.90;;;5.60;;
71253;SDS011;59019;47.638;18.966;2023-11-18T01:02:41;8.43;;;4.80;;
71253;SDS011;59019;47.638;18.966;2023-11-18T01:05:27;8.32;;;5.05;;
71253;SDS011;59019;47.638;18.966;2023-11-18T01:08:16;7.60;;;4.55;;
71253;SDS011;59019;47.638;18.966;2023-11-18T01:11:00;8.55;;;5.13;;
71253;SDS011;59019;47.638;18.966;2023-11-18T01:13:35;9.98;;;5.70;;
71253;SDS011;59019;47.638;18.966;2023-11-18T01:16:09;10.38;;;5.45;;
71253;SDS011;59019;47.638;18.966;2023-11-18T01:18:36;10.05;;;5.28;;
71253;SDS011;59019;47.638;18.966;2023-11-18T01:21:02;8.35;;;5.13;;
71253;SDS011;59019;47.638;18.966;2023-11-18T01:23:30;8.27;;;5.05;;
71253;SDS011;59019;47.638;18.966;2023-11-18T01:25:56;8.23;;;5.00;;
71253;SDS011;59019;47.638;18.966;2023-11-18T01:28:22;7.80;;;5.00;;
71253;SDS011;59019;47.638;18.966;2023-11-18T01:30:51;7.22;;;4.70;;
71253;SDS011;59019;47.638;18.966;2023-11-18T01:33:16;8.00;;;5.03;;
71253;SDS011;59019;47.638;18.966;2023-11-18T01:35:43;9.70;;;5.43;;
71253;SDS011;59019;47.638;18.966;2023-11-18T01:38:09;10.52;;;5.55;;
71253;SDS011;59019;47.638;18.966;2023-11-18T01:40:34;8.73;;;5.18;;
71253;SDS011;59019;47.638;18.966;2023-11-18T01:43:00;8.10;;;4.80;;
71253;SDS011;59019;47.638;18.966;2023-11-18T01:45:25;8.38;;;5.20;;
71253;SDS011;59019;47.638;18.966;2023-11-18T01:47:51;7.13;;;4.60;;
71253;SDS011;59019;47.638;18.966;2023-11-18T01:50:18;7.33;;;4.50;;
71253;SDS011;59019;47.638;18.966;2023-11-18T01:52:44;7.82;;;4.93;;
71253;SDS011;59019;47.638;18.966;2023-11-18T01:55:12;8.40;;;4.88;;
71253;SDS011;59019;47.638;18.966;2023-11-18T01:57:38;8.93;;;5.00;;
71253;SDS011;59019;47.638;18.966;2023-11-18T02:00:05;8.00;;;4.90;;
71253;SDS011;59019;47.638;18.966;2023-11-18T02:02:32;8.18;;;4.50;;
71253;SDS011;59019;47.638;18.966;2023-11-18T02:05:29;7.63;;;4.68;;
71253;SDS011;59019;47.638;18.966;2023-11-18T02:07:55;6.77;;;4.43;;
71253;SDS011;59019;47.638;18.966;2023-11-18T02:10:22;7.50;;;4.63;;
71253;SDS011;59019;47.638;18.966;2023-11-18T02:12:53;8.32;;;4.85;;
71253;SDS011;59019;47.638;18.966;2023-11-18T02:15:26;8.38;;;5.10;;
71253;SDS011;59019;47.638;18.966;2023-11-18T02:17:54;8.77;;;4.88;;
71253;SDS011;59019;47.638;18.966;2023-11-18T02:20:25;8.45;;;5.10;;
71253;SDS011;59019;47.638;18.966;2023-11-18T02:22:51;7.65;;;4.60;;
71253;SDS011;59019;47.638;18.966;2023-11-18T02:25:20;6.90;;;4.40;;
71253;SDS011;59019;47.638;18.966;2023-11-18T02:27:55;6.45;;;4.20;;
71253;SDS011;59019;47.638;18.966;2023-11-18T02:30:20;7.10;;;4.20;;
71253;SDS011;59019;47.638;18.966;2023-11-18T02:32:51;6.87;;;4.20;;
71253;SDS011;59019;47.638;18.966;2023-11-18T02:35:44;7.28;;;4.57;;
71253;SDS011;59019;47.638;18.966;2023-11-18T02:38:18;6.47;;;4.18;;
71253;SDS011;59019;47.638;18.966;2023-11-18T02:40:50;6.38;;;4.10;;
71253;SDS011;59019;47.638;18.966;2023-11-18T02:43:25;6.72;;;4.10;;
71253;SDS011;59019;47.638;18.966;2023-11-18T02:46:14;6.50;;;4.22;;
71253;SDS011;59019;47.638;18.966;2023-11-18T02:49:00;7.25;;;4.10;;
71253;SDS011;59019;47.638;18.966;2023-11-18T02:51:45;6.57;;;4.20;;
71253;SDS011;59019;47.638;18.966;2023-11-18T02:54:12;6.43;;;4.05;;
71253;SDS011;59019;47.638;18.966;2023-11-18T02:56:38;6.33;;;4.13;;
71253;SDS011;59019;47.638;18.966;2023-11-18T02:59:04;6.82;;;4.47;;
71253;SDS011;59019;47.638;18.966;2023-11-18T03:01:32;7.40;;;4.10;;
71253;SDS011;59019;47.638;18.966;2023-11-18T03:04:04;8.48;;;4.32;;
71253;SDS011;59019;47.638;18.966;2023-11-18T03:06:36;6.43;;;4.00;;
71253;SDS011;59019;47.638;18.966;2023-11-18T03:09:02;8.30;;;4.00;;
71253;SDS011;59019;47.638;18.966;2023-11-18T03:11:31;7.03;;;4.20;;
71253;SDS011;59019;47.638;18.966;2023-11-18T03:13:58;6.50;;;4.07;;
71253;SDS011;59019;47.638;18.966;2023-11-18T03:16:26;7.40;;;4.40;;
71253;SDS011;59019;47.638;18.966;2023-11-18T03:18:52;6.22;;;3.90;;
71253;SDS011;59019;47.638;18.966;2023-11-18T03:21:18;7.57;;;4.17;;
71253;SDS011;59019;47.638;18.966;2023-11-18T03:23:44;6.80;;;4.27;;
71253;SDS011;59019;47.638;18.966;2023-11-18T03:26:10;8.53;;;4.33;;
71253;SDS011;59019;47.638;18.966;2023-11-18T03:28:41;7.33;;;4.40;;
71253;SDS011;59019;47.638;18.966;2023-11-18T03:31:07;6.60;;;4.37;;
71253;SDS011;59019;47.638;18.966;2023-11-18T03:33:33;7.43;;;4.50;;
71253;SDS011;59019;47.638;18.966;2023-11-18T03:36:01;6.90;;;4.30;;
71253;SDS011;59019;47.638;18.966;2023-11-18T03:38:26;7.43;;;4.80;;
71253;SDS011;59019;47.638;18.966;2023-11-18T03:40:55;8.00;;;4.60;;
71253;SDS011;59019;47.638;18.966;2023-11-18T03:43:21;7.63;;;4.30;;
71253;SDS011;59019;47.638;18.966;2023-11-18T03:45:47;6.83;;;4.10;;
71253;SDS011;59019;47.638;18.966;2023-11-18T03:48:12;6.40;;;4.10;;
71253;SDS011;59019;47.638;18.966;2023-11-18T03:50:39;7.00;;;4.20;;
71253;SDS011;59019;47.638;18.966;2023-11-18T03:53:05;6.85;;;4.38;;
71253;SDS011;59019;47.638;18.966;2023-11-18T03:55:31;6.60;;;4.28;;
71253;SDS011;59019;47.638;18.966;2023-11-18T03:57:57;6.40;;;4.07;;
71253;SDS011;59019;47.638;18.966;2023-11-18T04:00:22;7.53;;;4.50;;
71253;SDS011;59019;47.638;18.966;2023-11-18T04:03:03;7.95;;;4.88;;
71253;SDS011;59019;47.638;18.966;2023-11-18T04:05:31;6.65;;;4.20;;
71253;SDS011;59019;47.638;18.966;2023-11-18T04:08:17;7.07;;;4.40;;
71253;SDS011;59019;47.638;18.966;2023-11-18T04:11:03;8.18;;;4.82;;
71253;SDS011;59019;47.638;18.966;2023-11-18T04:13:49;8.13;;;5.10;;
71253;SDS011;59019;47.638;18.966;2023-11-18T04:16:35;7.43;;;4.90;;
71253;SDS011;59019;47.638;18.966;2023-11-18T04:19:22;8.07;;;4.90;;
71253;SDS011;59019;47.638;18.966;2023-11-18T04:21:47;9.27;;;4.97;;
71253;SDS011;59019;47.638;18.966;2023-11-18T04:24:14;7.80;;;4.70;;
71253;SDS011;59019;47.638;18.966;2023-11-18T04:26:40;6.95;;;4.63;;
71253;SDS011;59019;47.638;18.966;2023-11-18T04:29:12;8.65;;;5.22;;
71253;SDS011;59019;47.638;18.966;2023-11-18T04:31:37;7.80;;;4.77;;
71253;SDS011;59019;47.638;18.966;2023-11-18T04:34:06;6.55;;;4.53;;
71253;SDS011;59019;47.638;18.966;2023-11-18T04:36:34;6.97;;;4.53;;
71253;SDS011;59019;47.638;18.966;2023-11-18T04:39:00;7.33;;;4.57;;
71253;SDS011;59019;47.638;18.966;2023-11-18T04:41:27;6.63;;;4.13;;
71253;SDS011;59019;47.638;18.966;2023-11-18T04:43:53;7.15;;;4.55;;
71253;SDS011;59019;47.638;18.966;2023-11-18T04:46:20;6.57;;;4.15;;
71253;SDS011;59019;47.638;18.966;2023-11-18T04:48:47;6.70;;;4.25;;
71253;SDS011;59019;47.638;18.966;2023-11-18T04:51:12;7.07;;;4.40;;
71253;SDS011;59019;47.638;18.966;2023-11-18T04:53:41;6.43;;;4.07;;
71253;SDS011;59019;47.638;18.966;2023-11-18T04:56:07;7.17;;;4.30;;
71253;SDS011;59019;47.638;18.966;2023-11-18T04:58:37;6.90;;;4.20;;
71253;SDS011;59019;47.638;18.966;2023-11-18T05:01:04;6.60;;;3.90;;
71253;SDS011;59019;47.638;18.966;2023-11-18T05:03:30;6.70;;;3.90;;
71253;SDS011;59019;47.638;18.966;2023-11-18T05:05:56;6.57;;;3.72;;
71253;SDS011;59019;47.638;18.966;2023-11-18T05:08:21;6.50;;;4.03;;
71253;SDS011;59019;47.638;18.966;2023-11-18T05:10:47;6.32;;;3.85;;
71253;SDS011;59019;47.638;18.966;2023-11-18T05:13:13;5.50;;;3.80;;
71253;SDS011;59019;47.638;18.966;2023-11-18T05:15:42;6.18;;;3.80;;
71253;SDS011;59019;47.638;18.966;2023-11-18T05:18:13;6.50;;;4.00;;
71253;SDS011;59019;47.638;18.966;2023-11-18T05:20:43;7.00;;;3.90;;
71253;SDS011;59019;47.638;18.966;2023-11-18T05:23:09;6.70;;;4.10;;
71253;SDS011;59019;47.638;18.966;2023-11-18T05:25:41;6.22;;;3.80;;
71253;SDS011;59019;47.638;18.966;2023-11-18T05:28:09;6.47;;;3.70;;
71253;SDS011;59019;47.638;18.966;2023-11-18T05:30:35;6.25;;;3.72;;
71253;SDS011;59019;47.638;18.966;2023-11-18T05:33:04;5.88;;;3.67;;
71253;SDS011;59019;47.638;18.966;2023-11-18T05:35:31;6.10;;;3.60;;
71253;SDS011;59019;47.638;18.966;2023-11-18T05:37:58;5.40;;;3.50;;
71253;SDS011;59019;47.638;18.966;2023-11-18T05:40:23;5.70;;;3.80;;
71253;SDS011;59019;47.638;18.966;2023-11-18T05:42:50;6.32;;;3.70;;
71253;SDS011;59019;47.638;18.966;2023-11-18T05:45:23;6.25;;;3.70;;
71253;SDS011;59019;47.638;18.966;2023-11-18T05:47:59;6.05;;;3.60;;
71253;SDS011;59019;47.638;18.966;2023-11-18T05:50:30;6.70;;;3.75;;
71253;SDS011;59019;47.638;18.966;2023-11-18T05:53:02;5.87;;;3.67;;
71253;SDS011;59019;47.638;18.966;2023-11-18T05:55:31;5.03;;;3.30;;
71253;SDS011;59019;47.638;18.966;2023-11-18T05:57:57;5.77;;;3.53;;
71253;SDS011;59019;47.638;18.966;2023-11-18T06:00:28;5.50;;;3.20;;
71253;SDS011;59019;47.638;18.966;2023-11-18T06:02:55;5.65;;;3.45;;
71253;SDS011;59019;47.638;18.966;2023-11-18T06:05:21;6.00;;;3.30;;
71253;SDS011;59019;47.638;18.966;2023-11-18T06:07:54;6.68;;;3.40;;
71253;SDS011;59019;47.638;18.966;2023-11-18T06:10:25;5.15;;;3.38;;
71253;SDS011;59019;47.638;18.966;2023-11-18T06:12:53;5.68;;;3.47;;
71253;SDS011;59019;47.638;18.966;2023-11-18T06:15:19;5.60;;;3.20;;
71253;SDS011;59019;47.638;18.966;2023-11-18T06:17:46;5.68;;;3.20;;
71253;SDS011;59019;47.638;18.966;2023-11-18T06:20:12;6.20;;;3.30;;
71253;SDS011;59019;47.638;18.966;2023-11-18T06:22:45;5.13;;;3.03;;
71253;SDS011;59019;47.638;18.966;2023-11-18T06:25:10;5.33;;;3.20;;
71253;SDS011;59019;47.638;18.966;2023-11-18T06:27:37;5.80;;;3.35;;
71253;SDS011;59019;47.638;18.966;2023-11-18T06:30:03;5.87;;;3.23;;
71253;SDS011;59019;47.638;18.966;2023-11-18T06:32:31;5.55;;;3.13;;
71253;SDS011;59019;47.638;18.966;2023-11-18T06:35:03;5.80;;;3.40;;
71253;SDS011;59019;47.638;18.966;2023-11-18T06:37:33;4.55;;;2.80;;
71253;SDS011;59019;47.638;18.966;2023-11-18T06:39:59;5.38;;;2.83;;
71253;SDS011;59019;47.638;18.966;2023-11-18T06:42:28;5.67;;;3.03;;
71253;SDS011;59019;47.638;18.966;2023-11-18T06:44:54;6.20;;;3.10;;
71253;SDS011;59019;47.638;18.966;2023-11-18T06:47:26;4.87;;;2.70;;
71253;SDS011;59019;47.638;18.966;2023-11-18T06:49:57;5.40;;;2.83;;
71253;SDS011;59019;47.638;18.966;2023-11-18T06:52:28;5.18;;;2.90;;
71253;SDS011;59019;47.638;18.966;2023-11-18T06:54:54;5.03;;;2.80;;
71253;SDS011;59019;47.638;18.966;2023-11-18T06:57:22;5.05;;;2.60;;
71253;SDS011;59019;47.638;18.966;2023-11-18T06:59:47;5.30;;;2.80;;
71253;SDS011;59019;47.638;18.966;2023-11-18T07:02:13;5.82;;;3.00;;
71253;SDS011;59019;47.638;18.966;2023-11-18T07:04:40;5.80;;;3.20;;
71253;SDS011;59019;47.638;18.966;2023-11-18T07:07:06;5.10;;;2.80;;
71253;SDS011;59019;47.638;18.966;2023-11-18T07:09:39;5.00;;;3.10;;
71253;SDS011;59019;47.638;18.966;2023-11-18T07:12:11;5.50;;;2.80;;
71253;SDS011;59019;47.638;18.966;2023-11-18T07:14:37;5.35;;;3.20;;
71253;SDS011;59019;47.638;18.966;2023-11-18T07:17:08;5.10;;;3.03;;
71253;SDS011;59019;47.638;18.966;2023-11-18T07:19:34;6.27;;;2.80;;
71253;SDS011;59019;47.638;18.966;2023-11-18T07:21:59;4.77;;;2.70;;
71253;SDS011;59019;47.638;18.966;2023-11-18T07:24:27;5.20;;;2.50;;
71253;SDS011;59019;47.638;18.966;2023-11-18T07:26:57;6.38;;;2.80;;
71253;SDS011;59019;47.638;18.966;2023-11-18T07:29:25;5.05;;;2.40;;
71253;SDS011;59019;47.638;18.966;2023-11-18T07:31:52;4.60;;;2.30;;
71253;SDS011;59019;47.638;18.966;2023-11-18T07:34:21;4.45;;;2.28;;
71253;SDS011;59019;47.638;18.966;2023-11-18T07:36:51;4.70;;;2.40;;
71253;SDS011;59019;47.638;18.966;2023-11-18T07:39:17;5.53;;;2.67;;
71253;SDS011;59019;47.638;18.966;2023-11-18T07:41:49;4.32;;;2.20;;
71253;SDS011;59019;47.638;18.966;2023-11-18T07:44:15;5.27;;;2.30;;
71253;SDS011;59019;47.638;18.966;2023-11-18T07:46:41;5.03;;;2.85;;
71253;SDS011;59019;47.638;18.966;2023-11-18T07:49:07;5.35;;;2.72;;
71253;SDS011;59019;47.638;18.966;2023-11-18T07:51:42;5.33;;;2.43;;
71253;SDS011;59019;47.638;18.966;2023-11-18T07:54:08;7.32;;;3.35;;
71253;SDS011;59019;47.638;18.966;2023-11-18T07:56:35;5.30;;;2.90;;
71253;SDS011;59019;47.638;18.966;2023-11-18T07:59:01;5.18;;;2.85;;
71253;SDS011;59019;47.638;18.966;2023-11-18T08:01:31;4.90;;;2.77;;
71253;SDS011;59019;47.638;18.966;2023-11-18T08:03:58;4.93;;;2.60;;
71253;SDS011;59019;47.638;18.966;2023-11-18T08:06:23;5.72;;;3.10;;
71253;SDS011;59019;47.638;18.966;2023-11-18T08:08:51;4.78;;;2.55;;
71253;SDS011;59019;47.638;18.966;2023-11-18T08:11:19;4.88;;;2.70;;
71253;SDS011;59019;47.638;18.966;2023-11-18T08:13:45;6.17;;;2.80;;
71253;SDS011;59019;47.638;18.966;2023-11-18T08:16:10;4.70;;;2.30;;
71253;SDS011;59019;47.638;18.966;2023-11-18T08:18:37;5.80;;;2.83;;
71253;SDS011;59019;47.638;18.966;2023-11-18T08:21:03;4.80;;;2.50;;
71253;SDS011;59019;47.638;18.966;2023-11-18T08:23:34;4.60;;;2.45;;
71253;SDS011;59019;47.638;18.966;2023-11-18T08:26:00;4.78;;;2.50;;
71253;SDS011;59019;47.638;18.966;2023-11-18T08:28:26;4.90;;;2.57;;
71253;SDS011;59019;47.638;18.966;2023-11-18T08:30:52;4.80;;;2.60;;
71253;SDS011;59019;47.638;18.966;2023-11-18T08:33:18;4.28;;;2.45;;
71253;SDS011;59019;47.638;18.966;2023-11-18T08:35:45;5.00;;;2.53;;
71253;SDS011;59019;47.638;18.966;2023-11-18T08:38:11;5.50;;;2.58;;
71253;SDS011;59019;47.638;18.966;2023-11-18T08:40:37;4.05;;;2.30;;
71253;SDS011;59019;47.638;18.966;2023-11-18T08:43:12;4.93;;;2.60;;
71253;SDS011;59019;47.638;18.966;2023-11-18T08:45:38;4.77;;;2.37;;
71253;SDS011;59019;47.638;18.966;2023-11-18T08:48:09;4.70;;;2.30;;
71253;SDS011;59019;47.638;18.966;2023-11-18T08:50:36;4.75;;;2.30;;
71253;SDS011;59019;47.638;18.966;2023-11-18T08:53:05;4.45;;;2.50;;
71253;SDS011;59019;47.638;18.966;2023-11-18T08:55:31;4.63;;;2.20;;
71253;SDS011;59019;47.638;18.966;2023-11-18T08:58:15;4.30;;;2.10;;
71253;SDS011;59019;47.638;18.966;2023-11-18T09:00:53;4.18;;;2.10;;
71253;SDS011;59019;47.638;18.966;2023-11-18T09:03:41;4.20;;;1.70;;
71253;SDS011;59019;47.638;18.966;2023-11-18T09:06:17;3.70;;;1.77;;
71253;SDS011;59019;47.638;18.966;2023-11-18T09:08:43;4.68;;;2.00;;
71253;SDS011;59019;47.638;18.966;2023-11-18T09:11:14;5.30;;;2.13;;
71253;SDS011;59019;47.638;18.966;2023-11-18T09:13:43;4.25;;;2.05;;
71253;SDS011;59019;47.638;18.966;2023-11-18T09:16:12;3.83;;;1.98;;
71253;SDS011;59019;47.638;18.966;2023-11-18T09:18:38;5.10;;;2.88;;
71253;SDS011;59019;47.638;18.966;2023-11-18T09:21:09;4.77;;;2.00;;
71253;SDS011;59019;47.638;18.966;2023-11-18T09:23:44;5.50;;;2.85;;
71253;SDS011;59019;47.638;18.966;2023-11-18T09:26:12;4.43;;;2.25;;
71253;SDS011;59019;47.638;18.966;2023-11-18T09:28:39;4.53;;;1.90;;
71253;SDS011;59019;47.638;18.966;2023-11-18T09:31:06;4.50;;;2.00;;
71253;SDS011;59019;47.638;18.966;2023-11-18T09:33:39;4.90;;;2.40;;
71253;SDS011;59019;47.638;18.966;2023-11-18T09:36:10;9.63;;;4.13;;
71253;SDS011;59019;47.638;18.966;2023-11-18T09:38:46;4.55;;;1.80;;
71253;SDS011;59019;47.638;18.966;2023-11-18T09:41:12;7.20;;;3.40;;
71253;SDS011;59019;47.638;18.966;2023-11-18T09:43:38;7.28;;;3.13;;
71253;SDS011;59019;47.638;18.966;2023-11-18T09:46:27;9.40;;;4.35;;
71253;SDS011;59019;47.638;18.966;2023-11-18T09:51:50;4.00;;;1.93;;
71253;SDS011;59019;47.638;18.966;2023-11-18T09:54:39;3.55;;;1.73;;
71253;SDS011;59019;47.638;18.966;2023-11-18T10:00:08;4.55;;;1.80;;
71253;SDS011;59019;47.638;18.966;2023-11-18T10:02:45;4.70;;;2.10;;
71253;SDS011;59019;47.638;18.966;2023-11-18T10:05:12;4.70;;;2.20;;
71253;SDS011;59019;47.638;18.966;2023-11-18T10:07:39;3.80;;;1.67;;
71253;SDS011;59019;47.638;18.966;2023-11-18T10:10:06;3.90;;;1.67;;
71253;SDS011;59019;47.638;18.966;2023-11-18T10:12:44;6.53;;;2.30;;
71253;SDS011;59019;47.638;18.966;2023-11-18T10:15:13;4.23;;;1.93;;
71253;SDS011;59019;47.638;18.966;2023-11-18T10:17:43;4.38;;;2.10;;
71253;SDS011;59019;47.638;18.966;2023-11-18T10:23:07;5.30;;;2.35;;
71253;SDS011;59019;47.638;18.966;2023-11-18T10:25:45;4.35;;;1.90;;
71253;SDS011;59019;47.638;18.966;2023-11-18T10:30:55;4.47;;;1.90;;
71253;SDS011;59019;47.638;18.966;2023-11-18T10:33:31;3.97;;;1.73;;
71253;SDS011;59019;47.638;18.966;2023-11-18T10:36:06;3.88;;;1.60;;
71253;SDS011;59019;47.638;18.966;2023-11-18T10:38:47;3.72;;;1.63;;
71253;SDS011;59019;47.638;18.966;2023-11-18T10:41:20;3.70;;;1.60;;
71253;SDS011;59019;47.638;18.966;2023-11-18T10:43:45;3.80;;;1.70;;
71253;SDS011;59019;47.638;18.966;2023-11-18T10:46:13;4.93;;;2.15;;
71253;SDS011;59019;47.638;18.966;2023-11-18T10:51:12;4.07;;;1.63;;
71253;SDS011;59019;47.638;18.966;2023-11-18T10:53:42;3.80;;;1.50;;
71253;SDS011;59019;47.638;18.966;2023-11-18T10:56:21;3.63;;;1.50;;
71253;SDS011;59019;47.638;18.966;2023-11-18T10:59:07;4.10;;;2.00;;
71253;SDS011;59019;47.638;18.966;2023-11-18T11:01:33;3.75;;;1.48;;
71253;SDS011;59019;47.638;18.966;2023-11-18T11:04:04;3.85;;;1.70;;
71253;SDS011;59019;47.638;18.966;2023-11-18T11:06:43;4.45;;;1.52;;
71253;SDS011;59019;47.638;18.966;2023-11-18T11:09:21;4.37;;;1.50;;
71253;SDS011;59019;47.638;18.966;2023-11-18T11:11:59;3.50;;;1.40;;
71253;SDS011;59019;47.638;18.966;2023-11-18T11:14:57;3.30;;;1.50;;
71253;SDS011;59019;47.638;18.966;2023-11-18T11:17:45;3.42;;;1.40;;
71253;SDS011;59019;47.638;18.966;2023-11-18T11:20:39;3.42;;;1.50;;
71253;SDS011;59019;47.638;18.966;2023-11-18T11:23:42;4.30;;;1.70;;
71253;SDS011;59019;47.638;18.966;2023-11-18T11:26:52;4.85;;;2.30;;
71253;SDS011;59019;47.638;18.966;2023-11-18T11:30:02;4.33;;;2.10;;
71253;SDS011;59019;47.638;18.966;2023-11-18T11:36:03;3.60;;;1.50;;
71253;SDS011;59019;47.638;18.966;2023-11-18T11:38:58;6.25;;;1.50;;
71253;SDS011;59019;47.638;18.966;2023-11-18T11:41:46;3.53;;;1.50;;
71253;SDS011;59019;47.638;18.966;2023-11-18T11:44:36;4.05;;;1.70;;
71253;SDS011;59019;47.638;18.966;2023-11-18T11:47:28;5.00;;;2.03;;
71253;SDS011;59019;47.638;18.966;2023-11-18T11:50:22;5.25;;;2.22;;
71253;SDS011;59019;47.638;18.966;2023-11-18T11:53:19;5.22;;;2.55;;
71253;SDS011;59019;47.638;18.966;2023-11-18T11:56:09;4.00;;;1.38;;
71253;SDS011;59019;47.638;18.966;2023-11-18T11:58:59;3.80;;;1.60;;
71253;SDS011;59019;47.638;18.966;2023-11-18T12:01:45;3.80;;;1.42;;
71253;SDS011;59019;47.638;18.966;2023-11-18T12:04:37;3.90;;;1.52;;
71253;SDS011;59019;47.638;18.966;2023-11-18T12:07:26;3.80;;;1.67;;
71253;SDS011;59019;47.638;18.966;2023-11-18T12:10:12;4.43;;;1.90;;
71253;SDS011;59019;47.638;18.966;2023-11-18T12:16:05;4.43;;;1.80;;
71253;SDS011;59019;47.638;18.966;2023-11-18T12:23:02;3.70;;;1.60;;
71253;SDS011;59019;47.638;18.966;2023-11-18T12:26:01;4.03;;;1.67;;
71253;SDS011;59019;47.638;18.966;2023-11-18T12:28:35;4.60;;;1.98;;
71253;SDS011;59019;47.638;18.966;2023-11-18T12:31:12;8.95;;;4.25;;
71253;SDS011;59019;47.638;18.966;2023-11-18T12:34:04;14.18;;;4.65;;
71253;SDS011;59019;47.638;18.966;2023-11-18T12:40:02;4.93;;;2.27;;
71253;SDS011;59019;47.638;18.966;2023-11-18T12:43:01;4.05;;;1.50;;
71253;SDS011;59019;47.638;18.966;2023-11-18T12:48:30;3.63;;;1.43;;
71253;SDS011;59019;47.638;18.966;2023-11-18T12:51:06;4.40;;;1.90;;
71253;SDS011;59019;47.638;18.966;2023-11-18T12:53:36;3.72;;;1.50;;
71253;SDS011;59019;47.638;18.966;2023-11-18T12:56:02;3.60;;;1.40;;
71253;SDS011;59019;47.638;18.966;2023-11-18T12:58:31;3.22;;;1.17;;
71253;SDS011;59019;47.638;18.966;2023-11-18T13:01:01;3.45;;;1.10;;
71253;SDS011;59019;47.638;18.966;2023-11-18T13:03:28;3.20;;;1.30;;
71253;SDS011;59019;47.638;18.966;2023-11-18T13:05:56;3.30;;;1.20;;
71253;SDS011;59019;47.638;18.966;2023-11-18T13:08:22;3.80;;;1.67;;
71253;SDS011;59019;47.638;18.966;2023-11-18T13:10:47;3.83;;;1.47;;
71253;SDS011;59019;47.638;18.966;2023-11-18T13:13:19;4.82;;;2.20;;
71253;SDS011;59019;47.638;18.966;2023-11-18T13:15:46;5.47;;;2.70;;
71253;SDS011;59019;47.638;18.966;2023-11-18T13:18:18;4.40;;;1.90;;
71253;SDS011;59019;47.638;18.966;2023-11-18T13:20:54;5.05;;;2.25;;
71253;SDS011;59019;47.638;18.966;2023-11-18T13:23:26;5.97;;;2.50;;
71253;SDS011;59019;47.638;18.966;2023-11-18T13:25:55;4.75;;;2.10;;
71253;SDS011;59019;47.638;18.966;2023-11-18T13:28:25;4.97;;;2.28;;
71253;SDS011;59019;47.638;18.966;2023-11-18T13:30:51;5.80;;;2.67;;
71253;SDS011;59019;47.638;18.966;2023-11-18T13:33:17;6.33;;;2.87;;
71253;SDS011;59019;47.638;18.966;2023-11-18T13:35:48;5.85;;;2.10;;
71253;SDS011;59019;47.638;18.966;2023-11-18T13:38:23;7.28;;;2.92;;
71253;SDS011;59019;47.638;18.966;2023-11-18T13:40:49;3.97;;;1.80;;
71253;SDS011;59019;47.638;18.966;2023-11-18T13:43:15;5.50;;;2.87;;
71253;SDS011;59019;47.638;18.966;2023-11-18T13:45:41;6.25;;;2.53;;
71253;SDS011;59019;47.638;18.966;2023-11-18T13:48:07;14.93;;;5.60;;
71253;SDS011;59019;47.638;18.966;2023-11-18T13:50:37;8.63;;;3.10;;
71253;SDS011;59019;47.638;18.966;2023-11-18T13:53:03;3.58;;;1.42;;
71253;SDS011;59019;47.638;18.966;2023-11-18T13:55:28;4.07;;;1.80;;
71253;SDS011;59019;47.638;18.966;2023-11-18T13:57:57;7.78;;;2.90;;
71253;SDS011;59019;47.638;18.966;2023-11-18T14:00:26;12.57;;;5.17;;
71253;SDS011;59019;47.638;18.966;2023-11-18T14:02:58;5.05;;;1.85;;
71253;SDS011;59019;47.638;18.966;2023-11-18T14:05:24;12.87;;;5.20;;
71253;SDS011;59019;47.638;18.966;2023-11-18T14:07:53;18.90;;;4.90;;
71253;SDS011;59019;47.638;18.966;2023-11-18T14:10:24;10.30;;;3.38;;
71253;SDS011;59019;47.638;18.966;2023-11-18T14:13:03;7.65;;;3.65;;
71253;SDS011;59019;47.638;18.966;2023-11-18T14:15:40;7.45;;;3.40;;
71253;SDS011;59019;47.638;18.966;2023-11-18T14:18:08;6.85;;;3.17;;
71253;SDS011;59019;47.638;18.966;2023-11-18T14:20:34;11.70;;;3.47;;
71253;SDS011;59019;47.638;18.966;2023-11-18T14:23:01;9.63;;;3.20;;
71253;SDS011;59019;47.638;18.966;2023-11-18T14:25:28;5.97;;;2.90;;
71253;SDS011;59019;47.638;18.966;2023-11-18T14:27:59;14.57;;;7.35;;
71253;SDS011;59019;47.638;18.966;2023-11-18T14:30:27;12.90;;;6.73;;
71253;SDS011;59019;47.638;18.966;2023-11-18T14:32:53;11.70;;;6.60;;
71253;SDS011;59019;47.638;18.966;2023-11-18T14:35:21;17.23;;;7.73;;
71253;SDS011;59019;47.638;18.966;2023-11-18T14:37:47;7.32;;;3.40;;
71253;SDS011;59019;47.638;18.966;2023-11-18T14:40:13;11.55;;;4.38;;
71253;SDS011;59019;47.638;18.966;2023-11-18T14:42:41;9.98;;;4.03;;
71253;SDS011;59019;47.638;18.966;2023-11-18T14:45:09;11.45;;;4.28;;
71253;SDS011;59019;47.638;18.966;2023-11-18T14:47:37;13.82;;;5.82;;
71253;SDS011;59019;47.638;18.966;2023-11-18T14:50:03;9.20;;;4.10;;
71253;SDS011;59019;47.638;18.966;2023-11-18T14:52:30;9.73;;;4.77;;
71253;SDS011;59019;47.638;18.966;2023-11-18T14:54:56;7.60;;;3.30;;
71253;SDS011;59019;47.638;18.966;2023-11-18T14:57:23;6.70;;;2.85;;
71253;SDS011;59019;47.638;18.966;2023-11-18T14:59:49;8.07;;;3.50;;
71253;SDS011;59019;47.638;18.966;2023-11-18T15:02:14;5.77;;;2.37;;
71253;SDS011;59019;47.638;18.966;2023-11-18T15:04:40;4.40;;;2.00;;
71253;SDS011;59019;47.638;18.966;2023-11-18T15:07:05;8.82;;;4.10;;
71253;SDS011;59019;47.638;18.966;2023-11-18T15:09:32;15.00;;;6.07;;
71253;SDS011;59019;47.638;18.966;2023-11-18T15:11:57;6.83;;;3.00;;
71253;SDS011;59019;47.638;18.966;2023-11-18T15:14:23;6.90;;;3.43;;
71253;SDS011;59019;47.638;18.966;2023-11-18T15:16:59;8.95;;;3.85;;
71253;SDS011;59019;47.638;18.966;2023-11-18T15:19:25;6.63;;;3.10;;
71253;SDS011;59019;47.638;18.966;2023-11-18T15:21:52;7.03;;;3.23;;
71253;SDS011;59019;47.638;18.966;2023-11-18T15:24:17;9.57;;;4.57;;
71253;SDS011;59019;47.638;18.966;2023-11-18T15:26:43;5.80;;;2.83;;
71253;SDS011;59019;47.638;18.966;2023-11-18T15:29:08;8.27;;;4.23;;
71253;SDS011;59019;47.638;18.966;2023-11-18T15:31:40;7.30;;;3.75;;
71253;SDS011;59019;47.638;18.966;2023-11-18T15:34:05;7.38;;;3.88;;